PWSweather.com
Personal Weather Stations
Station Observations
KMDSOLOM1
solomons, Solomons, MD 20688

solomonsSolomons, MD 20688

Lat: 38.32, Lon: -76.45

Elevation: 5

Station Type:

http://www.act-us.info/weather

High Low Average
Temperature 39.0°F3.9°C 34.3°F1.3°C 36.6°F2.6°C
Dew Point 35.6°F2.0°C 22.1°F-5.5°C 30.8°F-0.7°C
Winds 16.0 mph 25.7 kmh Calm Calm 8.0 mph SE12.9 kmh SE
Wind Gusts 18.0 mph29.0 kmh -- 10.0 mph16.1 kmh
Humidity 94% 57% 80%
Pressure 30.33 in1027.1 mb 30.14 in1020.7 mb -
Precipitation 0.00 in0.0 mm - -
Hour Temp Dew Point Humidity Winds Wind Gusts Pressure Precip Precip Rate Daily Precip Total
12:00 AM 34.3°F1.3°C 24.9°F-3.9°C 68% 1.0 mph W1.6 kmh W 4.0 mph6.4 kmh 30.32 in1026.8 mb 0.00 in0.0 mm 0.00 in0.0 mm 0.00 in0.0 mm
12:05 AM 34.4°F1.3°C 24.2°F-4.3°C 66% 2.0 mph W3.2 kmh W 4.0 mph6.4 kmh 30.32 in1026.8 mb 0.00 in0.0 mm 0.00 in0.0 mm 0.00 in0.0 mm
12:10 AM 34.8°F1.6°C 24.6°F-4.1°C 66% 3.0 mph W4.8 kmh W 4.0 mph6.4 kmh 30.32 in1026.8 mb 0.00 in0.0 mm 0.00 in0.0 mm 0.00 in0.0 mm
12:15 AM 35.3°F1.8°C 25.1°F-3.8°C 66% 6.0 mph W9.7 kmh W 8.0 mph12.9 kmh 30.32 in1026.8 mb 0.00 in0.0 mm 0.00 in0.0 mm 0.00 in0.0 mm
12:20 AM 35.9°F2.2°C 24.9°F-3.9°C 64% 6.0 mph W9.7 kmh W 8.0 mph12.9 kmh 30.32 in1026.8 mb 0.00 in0.0 mm 0.00 in0.0 mm 0.00 in0.0 mm
12:25 AM 36.2°F2.3°C 24.8°F-4.0°C 63% 7.0 mph W11.3 kmh W 8.0 mph12.9 kmh 30.32 in1026.8 mb 0.00 in0.0 mm 0.00 in0.0 mm 0.00 in0.0 mm
12:30 AM 36.2°F2.3°C 24.5°F-4.2°C 62% 8.0 mph W12.9 kmh W 9.0 mph14.5 kmh 30.32 in1026.8 mb 0.00 in0.0 mm 0.00 in0.0 mm 0.00 in0.0 mm
12:35 AM 36.4°F2.4°C 25.0°F-3.9°C 63% 8.0 mph NW12.9 kmh NW 10.0 mph16.1 kmh 30.32 in1026.8 mb 0.00 in0.0 mm 0.00 in0.0 mm 0.00 in0.0 mm
12:40 AM 36.4°F2.4°C 24.6°F-4.1°C 62% 5.0 mph NW8.0 kmh NW 7.0 mph11.3 kmh 30.32 in1026.8 mb 0.00 in0.0 mm 0.00 in0.0 mm 0.00 in0.0 mm
12:45 AM 36.4°F2.4°C 24.3°F-4.3°C 61% 3.0 mph NW4.8 kmh NW 9.0 mph14.5 kmh 30.32 in1026.8 mb 0.00 in0.0 mm 0.00 in0.0 mm 0.00 in0.0 mm
12:50 AM 36.3°F2.4°C 24.9°F-3.9°C 63% 4.0 mph NW6.4 kmh NW 9.0 mph14.5 kmh 30.32 in1026.8 mb 0.00 in0.0 mm 0.00 in0.0 mm 0.00 in0.0 mm
12:55 AM 36.2°F2.3°C 24.8°F-4.0°C 63% 4.0 mph NW6.4 kmh NW 7.0 mph11.3 kmh 30.32 in1026.8 mb 0.00 in0.0 mm 0.00 in0.0 mm 0.00 in0.0 mm
01:00 AM 36.1°F2.3°C 24.4°F-4.2°C 62% 5.0 mph NW8.0 kmh NW 10.0 mph16.1 kmh 30.32 in1026.8 mb 0.00 in0.0 mm 0.00 in0.0 mm 0.00 in0.0 mm
01:05 AM 36.0°F2.2°C 24.3°F-4.3°C 62% 9.0 mph NW14.5 kmh NW 10.0 mph16.1 kmh 30.32 in1026.8 mb 0.00 in0.0 mm 0.00 in0.0 mm 0.00 in0.0 mm
01:10 AM 35.9°F2.2°C 24.2°F-4.3°C 62% 7.0 mph NW11.3 kmh NW 8.0 mph12.9 kmh 30.32 in1026.8 mb 0.00 in0.0 mm 0.00 in0.0 mm 0.00 in0.0 mm
01:15 AM 35.8°F2.1°C 24.5°F-4.2°C 63% 5.0 mph NW8.0 kmh NW 8.0 mph12.9 kmh 30.33 in1027.1 mb 0.00 in0.0 mm 0.00 in0.0 mm 0.00 in0.0 mm
01:20 AM 35.8°F2.1°C 23.7°F-4.6°C 61% 4.0 mph NW6.4 kmh NW 10.0 mph16.1 kmh 30.32 in1026.8 mb 0.00 in0.0 mm 0.00 in0.0 mm 0.00 in0.0 mm
01:25 AM 35.8°F2.1°C 23.7°F-4.6°C 61% 5.0 mph NW8.0 kmh NW 9.0 mph14.5 kmh 30.32 in1026.8 mb 0.00 in0.0 mm 0.00 in0.0 mm 0.00 in0.0 mm
01:30 AM 35.8°F2.1°C 23.7°F-4.6°C 61% 6.0 mph NW9.7 kmh NW 11.0 mph17.7 kmh 30.32 in1026.8 mb 0.00 in0.0 mm 0.00 in0.0 mm 0.00 in0.0 mm
01:35 AM 35.8°F2.1°C 23.3°F-4.8°C 60% 10.0 mph NW16.1 kmh NW 11.0 mph17.7 kmh 30.32 in1026.8 mb 0.00 in0.0 mm 0.00 in0.0 mm 0.00 in0.0 mm
01:40 AM 35.7°F2.1°C 23.2°F-4.9°C 60% 8.0 mph NW12.9 kmh NW 9.0 mph14.5 kmh 30.32 in1026.8 mb 0.00 in0.0 mm 0.00 in0.0 mm 0.00 in0.0 mm
01:45 AM 35.8°F2.1°C 22.9°F-5.1°C 59% 5.0 mph NW8.0 kmh NW 12.0 mph19.3 kmh 30.32 in1026.8 mb 0.00 in0.0 mm 0.00 in0.0 mm 0.00 in0.0 mm
01:50 AM 35.8°F2.1°C 23.3°F-4.8°C 60% 8.0 mph NW12.9 kmh NW 12.0 mph19.3 kmh 30.32 in1026.8 mb 0.00 in0.0 mm 0.00 in0.0 mm 0.00 in0.0 mm
01:55 AM 35.8°F2.1°C 22.9°F-5.1°C 59% 9.0 mph NW14.5 kmh NW 9.0 mph14.5 kmh 30.32 in1026.8 mb 0.00 in0.0 mm 0.00 in0.0 mm 0.00 in0.0 mm
02:00 AM 35.8°F2.1°C 22.9°F-5.1°C 59% 8.0 mph NW12.9 kmh NW 9.0 mph14.5 kmh 30.32 in1026.8 mb 0.00 in0.0 mm 0.00 in0.0 mm 0.00 in0.0 mm
02:05 AM 35.8°F2.1°C 22.1°F-5.5°C 57% 9.0 mph NW14.5 kmh NW 11.0 mph17.7 kmh 30.32 in1026.8 mb 0.00 in0.0 mm 0.00 in0.0 mm 0.00 in0.0 mm
02:10 AM 35.8°F2.1°C 22.1°F-5.5°C 57% 10.0 mph NW16.1 kmh NW 13.0 mph20.9 kmh 30.32 in1026.8 mb 0.00 in0.0 mm 0.00 in0.0 mm 0.00 in0.0 mm
02:15 AM 35.9°F2.2°C 22.6°F-5.2°C 58% 8.0 mph NNW12.9 kmh NNW 13.0 mph20.9 kmh 30.31 in1026.4 mb 0.00 in0.0 mm 0.00 in0.0 mm 0.00 in0.0 mm
02:20 AM 35.9°F2.2°C 22.6°F-5.2°C 58% 12.0 mph NNW19.3 kmh NNW 13.0 mph20.9 kmh 30.31 in1026.4 mb 0.00 in0.0 mm 0.00 in0.0 mm 0.00 in0.0 mm
02:25 AM 35.9°F2.2°C 23.4°F-4.8°C 60% 9.0 mph NNW14.5 kmh NNW 11.0 mph17.7 kmh 30.31 in1026.4 mb 0.00 in0.0 mm 0.00 in0.0 mm 0.00 in0.0 mm
02:30 AM 35.9°F2.2°C 23.4°F-4.8°C 60% 11.0 mph NNW17.7 kmh NNW 15.0 mph24.1 kmh 30.31 in1026.4 mb 0.00 in0.0 mm 0.00 in0.0 mm 0.00 in0.0 mm
02:35 AM 35.9°F2.2°C 23.4°F-4.8°C 60% 10.0 mph NW16.1 kmh NW 15.0 mph24.1 kmh 30.30 in1026.1 mb 0.00 in0.0 mm 0.00 in0.0 mm 0.00 in0.0 mm
02:40 AM 35.9°F2.2°C 23.4°F-4.8°C 60% 10.0 mph NNW16.1 kmh NNW 15.0 mph24.1 kmh 30.30 in1026.1 mb 0.00 in0.0 mm 0.00 in0.0 mm 0.00 in0.0 mm
02:45 AM 35.9°F2.2°C 23.4°F-4.8°C 60% 8.0 mph NNW12.9 kmh NNW 15.0 mph24.1 kmh 30.30 in1026.1 mb 0.00 in0.0 mm 0.00 in0.0 mm 0.00 in0.0 mm
02:50 AM 35.8°F2.1°C 23.7°F-4.6°C 61% 11.0 mph NNW17.7 kmh NNW 15.0 mph24.1 kmh 30.29 in1025.7 mb 0.00 in0.0 mm 0.00 in0.0 mm 0.00 in0.0 mm
02:55 AM 35.8°F2.1°C 23.3°F-4.8°C 60% 10.0 mph NNW16.1 kmh NNW 13.0 mph20.9 kmh 30.29 in1025.7 mb 0.00 in0.0 mm 0.00 in0.0 mm 0.00 in0.0 mm
03:00 AM 35.7°F2.1°C 23.2°F-4.9°C 60% 11.0 mph NNW17.7 kmh NNW 13.0 mph20.9 kmh 30.29 in1025.7 mb 0.00 in0.0 mm 0.00 in0.0 mm 0.00 in0.0 mm
03:05 AM 35.7°F2.1°C 23.2°F-4.9°C 60% 10.0 mph NW16.1 kmh NW 16.0 mph25.7 kmh 30.29 in1025.7 mb 0.00 in0.0 mm 0.00 in0.0 mm 0.00 in0.0 mm
03:10 AM 35.8°F2.1°C 23.3°F-4.8°C 60% 11.0 mph NW17.7 kmh NW 12.0 mph19.3 kmh 30.29 in1025.7 mb 0.00 in0.0 mm 0.00 in0.0 mm 0.00 in0.0 mm
03:15 AM 35.7°F2.1°C 23.6°F-4.7°C 61% 8.0 mph NNW12.9 kmh NNW 13.0 mph20.9 kmh 30.28 in1025.4 mb 0.00 in0.0 mm 0.00 in0.0 mm 0.00 in0.0 mm
03:20 AM 35.7°F2.1°C 23.2°F-4.9°C 60% 9.0 mph NW14.5 kmh NW 15.0 mph24.1 kmh 30.28 in1025.4 mb 0.00 in0.0 mm 0.00 in0.0 mm 0.00 in0.0 mm
03:25 AM 35.8°F2.1°C 24.1°F-4.4°C 62% 11.0 mph NNW17.7 kmh NNW 13.0 mph20.9 kmh 30.29 in1025.7 mb 0.00 in0.0 mm 0.00 in0.0 mm 0.00 in0.0 mm
03:30 AM 35.7°F2.1°C 24.0°F-4.4°C 62% 11.0 mph NNW17.7 kmh NNW 15.0 mph24.1 kmh 30.28 in1025.4 mb 0.00 in0.0 mm 0.00 in0.0 mm 0.00 in0.0 mm
03:35 AM 35.7°F2.1°C 23.6°F-4.7°C 61% 11.0 mph NNW17.7 kmh NNW 15.0 mph24.1 kmh 30.29 in1025.7 mb 0.00 in0.0 mm 0.00 in0.0 mm 0.00 in0.0 mm
03:40 AM 35.7°F2.1°C 24.4°F-4.2°C 63% 5.0 mph NNW8.0 kmh NNW 13.0 mph20.9 kmh 30.28 in1025.4 mb 0.00 in0.0 mm 0.00 in0.0 mm 0.00 in0.0 mm
03:45 AM 35.6°F2.0°C 23.9°F-4.5°C 62% 10.0 mph NNW16.1 kmh NNW 14.0 mph22.5 kmh 30.28 in1025.4 mb 0.00 in0.0 mm 0.00 in0.0 mm 0.00 in0.0 mm
03:50 AM 35.5°F1.9°C 23.8°F-4.6°C 62% 9.0 mph NW14.5 kmh NW 14.0 mph22.5 kmh 30.28 in1025.4 mb 0.00 in0.0 mm 0.00 in0.0 mm 0.00 in0.0 mm
03:55 AM 35.5°F1.9°C 24.2°F-4.3°C 63% 12.0 mph NNW19.3 kmh NNW 13.0 mph20.9 kmh 30.29 in1025.7 mb 0.00 in0.0 mm 0.00 in0.0 mm 0.00 in0.0 mm
04:00 AM 35.5°F1.9°C 23.4°F-4.8°C 61% 9.0 mph NW14.5 kmh NW 13.0 mph20.9 kmh 30.29 in1025.7 mb 0.00 in0.0 mm 0.00 in0.0 mm 0.00 in0.0 mm
04:05 AM 35.4°F1.9°C 23.3°F-4.8°C 61% 11.0 mph NNW17.7 kmh NNW 13.0 mph20.9 kmh 30.29 in1025.7 mb 0.00 in0.0 mm 0.00 in0.0 mm 0.00 in0.0 mm
04:10 AM 35.4°F1.9°C 23.7°F-4.6°C 62% 10.0 mph NNW16.1 kmh NNW 11.0 mph17.7 kmh 30.29 in1025.7 mb 0.00 in0.0 mm 0.00 in0.0 mm 0.00 in0.0 mm
04:15 AM 35.4°F1.9°C 25.2°F-3.8°C 66% 11.0 mph NNW17.7 kmh NNW 13.0 mph20.9 kmh 30.30 in1026.1 mb 0.00 in0.0 mm 0.00 in0.0 mm 0.00 in0.0 mm
04:20 AM 35.4°F1.9°C 24.8°F-4.0°C 65% 11.0 mph NNW17.7 kmh NNW 14.0 mph22.5 kmh 30.30 in1026.1 mb 0.00 in0.0 mm 0.00 in0.0 mm 0.00 in0.0 mm
04:25 AM 35.4°F1.9°C 24.5°F-4.2°C 64% 10.0 mph NNW16.1 kmh NNW 13.0 mph20.9 kmh 30.30 in1026.1 mb 0.00 in0.0 mm 0.00 in0.0 mm 0.00 in0.0 mm
04:30 AM 35.5°F1.9°C 24.9°F-3.9°C 65% 10.0 mph NNW16.1 kmh NNW 14.0 mph22.5 kmh 30.30 in1026.1 mb 0.00 in0.0 mm 0.00 in0.0 mm 0.00 in0.0 mm
04:35 AM 35.5°F1.9°C 24.5°F-4.2°C 64% 9.0 mph NNW14.5 kmh NNW 14.0 mph22.5 kmh 30.30 in1026.1 mb 0.00 in0.0 mm 0.00 in0.0 mm 0.00 in0.0 mm
04:40 AM 35.4°F1.9°C 23.3°F-4.8°C 61% 8.0 mph NW12.9 kmh NW 12.0 mph19.3 kmh 30.31 in1026.4 mb 0.00 in0.0 mm 0.00 in0.0 mm 0.00 in0.0 mm
04:45 AM 35.3°F1.8°C 24.0°F-4.4°C 63% 6.0 mph NNW9.7 kmh NNW 12.0 mph19.3 kmh 30.30 in1026.1 mb 0.00 in0.0 mm 0.00 in0.0 mm 0.00 in0.0 mm
04:50 AM 35.2°F1.8°C 23.9°F-4.5°C 63% 11.0 mph NW17.7 kmh NW 13.0 mph20.9 kmh 30.31 in1026.4 mb 0.00 in0.0 mm 0.00 in0.0 mm 0.00 in0.0 mm
04:55 AM 35.3°F1.8°C 24.0°F-4.4°C 63% 6.0 mph NNW9.7 kmh NNW 10.0 mph16.1 kmh 30.31 in1026.4 mb 0.00 in0.0 mm 0.00 in0.0 mm 0.00 in0.0 mm
05:00 AM 35.2°F1.8°C 23.5°F-4.7°C 62% 9.0 mph NNW14.5 kmh NNW 12.0 mph19.3 kmh 30.31 in1026.4 mb 0.00 in0.0 mm 0.00 in0.0 mm 0.00 in0.0 mm
05:05 AM 35.3°F1.8°C 24.0°F-4.4°C 63% 9.0 mph NNW14.5 kmh NNW 12.0 mph19.3 kmh 30.30 in1026.1 mb 0.00 in0.0 mm 0.00 in0.0 mm 0.00 in0.0 mm
05:10 AM 35.3°F1.8°C 24.0°F-4.4°C 63% 9.0 mph NNW14.5 kmh NNW 10.0 mph16.1 kmh 30.31 in1026.4 mb 0.00 in0.0 mm 0.00 in0.0 mm 0.00 in0.0 mm
05:15 AM 35.4°F1.9°C 22.9°F-5.1°C 60% 8.0 mph NW12.9 kmh NW 11.0 mph17.7 kmh 30.31 in1026.4 mb 0.00 in0.0 mm 0.00 in0.0 mm 0.00 in0.0 mm
05:20 AM 35.3°F1.8°C 22.8°F-5.1°C 60% 11.0 mph NW17.7 kmh NW 11.0 mph17.7 kmh 30.31 in1026.4 mb 0.00 in0.0 mm 0.00 in0.0 mm 0.00 in0.0 mm
05:25 AM 35.3°F1.8°C 23.6°F-4.7°C 62% 9.0 mph NNW14.5 kmh NNW 11.0 mph17.7 kmh 30.31 in1026.4 mb 0.00 in0.0 mm 0.00 in0.0 mm 0.00 in0.0 mm
05:30 AM 35.3°F1.8°C 23.6°F-4.7°C 62% 9.0 mph NNW14.5 kmh NNW 11.0 mph17.7 kmh 30.32 in1026.8 mb 0.00 in0.0 mm 0.00 in0.0 mm 0.00 in0.0 mm
05:35 AM 35.3°F1.8°C 23.2°F-4.9°C 61% 8.0 mph NW12.9 kmh NW 11.0 mph17.7 kmh 30.32 in1026.8 mb 0.00 in0.0 mm 0.00 in0.0 mm 0.00 in0.0 mm
05:40 AM 35.3°F1.8°C 23.6°F-4.7°C 62% 8.0 mph NNW12.9 kmh NNW 10.0 mph16.1 kmh 30.32 in1026.8 mb 0.00 in0.0 mm 0.00 in0.0 mm 0.00 in0.0 mm
05:45 AM 35.3°F1.8°C 23.2°F-4.9°C 61% 10.0 mph NNW16.1 kmh NNW 12.0 mph19.3 kmh 30.32 in1026.8 mb 0.00 in0.0 mm 0.00 in0.0 mm 0.00 in0.0 mm
05:50 AM 35.3°F1.8°C 22.8°F-5.1°C 60% 10.0 mph NNW16.1 kmh NNW 12.0 mph19.3 kmh 30.32 in1026.8 mb 0.00 in0.0 mm 0.00 in0.0 mm 0.00 in0.0 mm
05:55 AM 35.4°F1.9°C 24.5°F-4.2°C 64% 5.0 mph NNW8.0 kmh NNW 11.0 mph17.7 kmh 30.31 in1026.4 mb 0.00 in0.0 mm 0.00 in0.0 mm 0.00 in0.0 mm
06:00 AM 35.4°F1.9°C 24.5°F-4.2°C 64% 9.0 mph N14.5 kmh N 12.0 mph19.3 kmh 30.32 in1026.8 mb 0.00 in0.0 mm 0.00 in0.0 mm 0.00 in0.0 mm
06:05 AM 35.3°F1.8°C 24.0°F-4.4°C 63% 4.0 mph NNW6.4 kmh NNW 12.0 mph19.3 kmh 30.32 in1026.8 mb 0.00 in0.0 mm 0.00 in0.0 mm 0.00 in0.0 mm
06:10 AM 35.4°F1.9°C 24.1°F-4.4°C 63% 8.0 mph NNW12.9 kmh NNW 10.0 mph16.1 kmh 30.32 in1026.8 mb 0.00 in0.0 mm 0.00 in0.0 mm 0.00 in0.0 mm
06:15 AM 35.5°F1.9°C 24.9°F-3.9°C 65% 8.0 mph N12.9 kmh N 12.0 mph19.3 kmh 30.32 in1026.8 mb 0.00 in0.0 mm 0.00 in0.0 mm 0.00 in0.0 mm
06:20 AM 35.6°F2.0°C 25.4°F-3.7°C 66% 10.0 mph N16.1 kmh N 12.0 mph19.3 kmh 30.32 in1026.8 mb 0.00 in0.0 mm 0.00 in0.0 mm 0.00 in0.0 mm
06:25 AM 35.7°F2.1°C 26.5°F-3.1°C 69% 14.0 mph N22.5 kmh N 14.0 mph22.5 kmh 30.31 in1026.4 mb 0.00 in0.0 mm 0.00 in0.0 mm 0.00 in0.0 mm
06:30 AM 35.8°F2.1°C 27.0°F-2.8°C 70% 14.0 mph N22.5 kmh N 16.0 mph25.7 kmh 30.31 in1026.4 mb 0.00 in0.0 mm 0.00 in0.0 mm 0.00 in0.0 mm
06:35 AM 35.8°F2.1°C 27.3°F-2.6°C 71% 12.0 mph N19.3 kmh N 16.0 mph25.7 kmh 30.31 in1026.4 mb 0.00 in0.0 mm 0.00 in0.0 mm 0.00 in0.0 mm
06:40 AM 35.8°F2.1°C 27.7°F-2.4°C 72% 13.0 mph N20.9 kmh N 16.0 mph25.7 kmh 30.31 in1026.4 mb 0.00 in0.0 mm 0.00 in0.0 mm 0.00 in0.0 mm
06:45 AM 35.8°F2.1°C 27.7°F-2.4°C 72% 13.0 mph N20.9 kmh N 16.0 mph25.7 kmh 30.32 in1026.8 mb 0.00 in0.0 mm 0.00 in0.0 mm 0.00 in0.0 mm
06:50 AM 35.7°F2.1°C 27.6°F-2.4°C 72% 13.0 mph N20.9 kmh N 16.0 mph25.7 kmh 30.32 in1026.8 mb 0.00 in0.0 mm 0.00 in0.0 mm 0.00 in0.0 mm
06:55 AM 35.7°F2.1°C 27.9°F-2.3°C 73% 12.0 mph N19.3 kmh N 13.0 mph20.9 kmh 30.32 in1026.8 mb 0.00 in0.0 mm 0.00 in0.0 mm 0.00 in0.0 mm
07:00 AM 35.7°F2.1°C 27.9°F-2.3°C 73% 13.0 mph N20.9 kmh N 14.0 mph22.5 kmh 30.32 in1026.8 mb 0.00 in0.0 mm 0.00 in0.0 mm 0.00 in0.0 mm
07:05 AM 35.7°F2.1°C 27.9°F-2.3°C 73% 11.0 mph N17.7 kmh N 14.0 mph22.5 kmh 30.32 in1026.8 mb 0.00 in0.0 mm 0.00 in0.0 mm 0.00 in0.0 mm
07:10 AM 35.8°F2.1°C 28.3°F-2.1°C 74% 11.0 mph N17.7 kmh N 12.0 mph19.3 kmh 30.31 in1026.4 mb 0.00 in0.0 mm 0.00 in0.0 mm 0.00 in0.0 mm
07:15 AM 35.8°F2.1°C 28.3°F-2.1°C 74% 14.0 mph N22.5 kmh N 14.0 mph22.5 kmh 30.32 in1026.8 mb 0.00 in0.0 mm 0.00 in0.0 mm 0.00 in0.0 mm
07:20 AM 35.8°F2.1°C 28.7°F-1.8°C 75% 12.0 mph N19.3 kmh N 14.0 mph22.5 kmh 30.32 in1026.8 mb 0.00 in0.0 mm 0.00 in0.0 mm 0.00 in0.0 mm
07:25 AM 35.7°F2.1°C 28.6°F-1.9°C 75% 10.0 mph N16.1 kmh N 13.0 mph20.9 kmh 30.32 in1026.8 mb 0.00 in0.0 mm 0.00 in0.0 mm 0.00 in0.0 mm
07:30 AM 35.6°F2.0°C 28.1°F-2.2°C 74% 12.0 mph N19.3 kmh N 14.0 mph22.5 kmh 30.32 in1026.8 mb 0.00 in0.0 mm 0.00 in0.0 mm 0.00 in0.0 mm
07:35 AM 35.6°F2.0°C 28.5°F-1.9°C 75% 10.0 mph N16.1 kmh N 14.0 mph22.5 kmh 30.32 in1026.8 mb 0.00 in0.0 mm 0.00 in0.0 mm 0.00 in0.0 mm
07:40 AM 35.6°F2.0°C 28.5°F-1.9°C 75% 9.0 mph N14.5 kmh N 12.0 mph19.3 kmh 30.32 in1026.8 mb 0.00 in0.0 mm 0.00 in0.0 mm 0.00 in0.0 mm
07:45 AM 35.8°F2.1°C 29.0°F-1.7°C 76% 11.0 mph N17.7 kmh N 12.0 mph19.3 kmh 30.32 in1026.8 mb 0.00 in0.0 mm 0.00 in0.0 mm 0.00 in0.0 mm
07:50 AM 35.8°F2.1°C 29.0°F-1.7°C 76% 11.0 mph N17.7 kmh N 12.0 mph19.3 kmh 30.32 in1026.8 mb 0.00 in0.0 mm 0.00 in0.0 mm 0.00 in0.0 mm
07:55 AM 35.9°F2.2°C 29.1°F-1.6°C 76% 10.0 mph N16.1 kmh N 11.0 mph17.7 kmh 30.33 in1027.1 mb 0.00 in0.0 mm 0.00 in0.0 mm 0.00 in0.0 mm
08:00 AM 35.9°F2.2°C 29.1°F-1.6°C 76% 9.0 mph N14.5 kmh N 13.0 mph20.9 kmh 30.33 in1027.1 mb 0.00 in0.0 mm 0.00 in0.0 mm 0.00 in0.0 mm
08:05 AM 35.9°F2.2°C 29.1°F-1.6°C 76% 11.0 mph N17.7 kmh N 13.0 mph20.9 kmh 30.32 in1026.8 mb 0.00 in0.0 mm 0.00 in0.0 mm 0.00 in0.0 mm
08:10 AM 36.1°F2.3°C 29.6°F-1.3°C 77% 9.0 mph N14.5 kmh N 10.0 mph16.1 kmh 30.32 in1026.8 mb 0.00 in0.0 mm 0.00 in0.0 mm 0.00 in0.0 mm
08:15 AM 36.2°F2.3°C 29.4°F-1.4°C 76% 10.0 mph N16.1 kmh N 12.0 mph19.3 kmh 30.33 in1027.1 mb 0.00 in0.0 mm 0.00 in0.0 mm 0.00 in0.0 mm
08:20 AM 36.3°F2.4°C 29.8°F-1.2°C 77% 9.0 mph N14.5 kmh N 12.0 mph19.3 kmh 30.33 in1027.1 mb 0.00 in0.0 mm 0.00 in0.0 mm 0.00 in0.0 mm
08:25 AM 36.3°F2.4°C 30.1°F-1.1°C 78% 8.0 mph N12.9 kmh N 10.0 mph16.1 kmh 30.33 in1027.1 mb 0.00 in0.0 mm 0.00 in0.0 mm 0.00 in0.0 mm
08:30 AM 36.3°F2.4°C 29.8°F-1.2°C 77% 11.0 mph N17.7 kmh N 12.0 mph19.3 kmh 30.33 in1027.1 mb 0.00 in0.0 mm 0.00 in0.0 mm 0.00 in0.0 mm
08:35 AM 36.4°F2.4°C 29.6°F-1.3°C 76% 10.0 mph N16.1 kmh N 12.0 mph19.3 kmh 30.33 in1027.1 mb 0.00 in0.0 mm 0.00 in0.0 mm 0.00 in0.0 mm
08:40 AM 36.4°F2.4°C 29.6°F-1.3°C 76% 11.0 mph N17.7 kmh N 11.0 mph17.7 kmh 30.33 in1027.1 mb 0.00 in0.0 mm 0.00 in0.0 mm 0.00 in0.0 mm
08:45 AM 36.5°F2.5°C 30.0°F-1.1°C 77% 9.0 mph NNE14.5 kmh NNE 12.0 mph19.3 kmh 30.33 in1027.1 mb 0.00 in0.0 mm 0.00 in0.0 mm 0.00 in0.0 mm
08:50 AM 36.7°F2.6°C 30.5°F-0.8°C 78% 11.0 mph N17.7 kmh N 12.0 mph19.3 kmh 30.33 in1027.1 mb 0.00 in0.0 mm 0.00 in0.0 mm 0.00 in0.0 mm
08:55 AM 36.6°F2.6°C 30.1°F-1.1°C 77% 9.0 mph N14.5 kmh N 10.0 mph16.1 kmh 30.33 in1027.1 mb 0.00 in0.0 mm 0.00 in0.0 mm 0.00 in0.0 mm
09:00 AM 36.7°F2.6°C 30.2°F-1.0°C 77% 9.0 mph N14.5 kmh N 12.0 mph19.3 kmh 30.32 in1026.8 mb 0.00 in0.0 mm 0.00 in0.0 mm 0.00 in0.0 mm
09:05 AM 36.7°F2.6°C 30.5°F-0.8°C 78% 10.0 mph N16.1 kmh N 12.0 mph19.3 kmh 30.32 in1026.8 mb 0.00 in0.0 mm 0.00 in0.0 mm 0.00 in0.0 mm
09:10 AM 36.7°F2.6°C 30.2°F-1.0°C 77% 11.0 mph N17.7 kmh N 11.0 mph17.7 kmh 30.32 in1026.8 mb 0.00 in0.0 mm 0.00 in0.0 mm 0.00 in0.0 mm
09:15 AM 36.8°F2.7°C 30.6°F-0.8°C 78% 10.0 mph N16.1 kmh N 11.0 mph17.7 kmh 30.32 in1026.8 mb 0.00 in0.0 mm 0.00 in0.0 mm 0.00 in0.0 mm
09:20 AM 36.9°F2.7°C 30.7°F-0.7°C 78% 8.0 mph N12.9 kmh N 11.0 mph17.7 kmh 30.32 in1026.8 mb 0.00 in0.0 mm 0.00 in0.0 mm 0.00 in0.0 mm
09:25 AM 36.8°F2.7°C 30.6°F-0.8°C 78% 9.0 mph N14.5 kmh N 9.0 mph14.5 kmh 30.32 in1026.8 mb 0.00 in0.0 mm 0.00 in0.0 mm 0.00 in0.0 mm
09:30 AM 36.9°F2.7°C 30.7°F-0.7°C 78% 9.0 mph N14.5 kmh N 10.0 mph16.1 kmh 30.32 in1026.8 mb 0.00 in0.0 mm 0.00 in0.0 mm 0.00 in0.0 mm
09:35 AM 37.1°F2.8°C 30.9°F-0.6°C 78% 8.0 mph N12.9 kmh N 11.0 mph17.7 kmh 30.32 in1026.8 mb 0.00 in0.0 mm 0.00 in0.0 mm 0.00 in0.0 mm
09:40 AM 37.2°F2.9°C 31.0°F-0.6°C 78% 8.0 mph N12.9 kmh N 10.0 mph16.1 kmh 30.32 in1026.8 mb 0.00 in0.0 mm 0.00 in0.0 mm 0.00 in0.0 mm
09:45 AM 37.4°F3.0°C 31.2°F-0.4°C 78% 8.0 mph N12.9 kmh N 10.0 mph16.1 kmh 30.32 in1026.8 mb 0.00 in0.0 mm 0.00 in0.0 mm 0.00 in0.0 mm
09:50 AM 37.6°F3.1°C 31.1°F-0.5°C 77% 8.0 mph N12.9 kmh N 12.0 mph19.3 kmh 30.32 in1026.8 mb 0.00 in0.0 mm 0.00 in0.0 mm 0.00 in0.0 mm
09:55 AM 37.7°F3.2°C 31.2°F-0.4°C 77% 5.0 mph N8.0 kmh N 9.0 mph14.5 kmh 30.33 in1027.1 mb 0.00 in0.0 mm 0.00 in0.0 mm 0.00 in0.0 mm
10:00 AM 37.8°F3.2°C 31.6°F-0.2°C 78% 9.0 mph NNE14.5 kmh NNE 10.0 mph16.1 kmh 30.32 in1026.8 mb 0.00 in0.0 mm 0.00 in0.0 mm 0.00 in0.0 mm
10:05 AM 37.9°F3.3°C 31.4°F-0.3°C 77% 9.0 mph NNE14.5 kmh NNE 10.0 mph16.1 kmh 30.32 in1026.8 mb 0.00 in0.0 mm 0.00 in0.0 mm 0.00 in0.0 mm
10:10 AM 38.1°F3.4°C 31.2°F-0.4°C 76% 7.0 mph NE11.3 kmh NE 10.0 mph16.1 kmh 30.32 in1026.8 mb 0.00 in0.0 mm 0.00 in0.0 mm 0.00 in0.0 mm
10:15 AM 38.2°F3.4°C 31.3°F-0.4°C 76% 9.0 mph NE14.5 kmh NE 11.0 mph17.7 kmh 30.32 in1026.8 mb 0.00 in0.0 mm 0.00 in0.0 mm 0.00 in0.0 mm
10:20 AM 38.3°F3.5°C 31.4°F-0.3°C 76% 7.0 mph NE11.3 kmh NE 11.0 mph17.7 kmh 30.32 in1026.8 mb 0.00 in0.0 mm 0.00 in0.0 mm 0.00 in0.0 mm
10:25 AM 38.3°F3.5°C 31.7°F-0.2°C 77% 10.0 mph NE16.1 kmh NE 11.0 mph17.7 kmh 30.32 in1026.8 mb 0.00 in0.0 mm 0.00 in0.0 mm 0.00 in0.0 mm
10:30 AM 38.3°F3.5°C 31.7°F-0.2°C 77% 7.0 mph NE11.3 kmh NE 11.0 mph17.7 kmh 30.31 in1026.4 mb 0.00 in0.0 mm 0.00 in0.0 mm 0.00 in0.0 mm
10:35 AM 38.4°F3.6°C 32.2°F0.1°C 78% 9.0 mph NE14.5 kmh NE 12.0 mph19.3 kmh 30.31 in1026.4 mb 0.00 in0.0 mm 0.00 in0.0 mm 0.00 in0.0 mm
10:40 AM 38.4°F3.6°C 31.8°F-0.1°C 77% 7.0 mph NE11.3 kmh NE 10.0 mph16.1 kmh 30.31 in1026.4 mb 0.00 in0.0 mm 0.00 in0.0 mm 0.00 in0.0 mm
10:45 AM 38.4°F3.6°C 32.2°F0.1°C 78% 6.0 mph NE9.7 kmh NE 10.0 mph16.1 kmh 30.31 in1026.4 mb 0.00 in0.0 mm 0.00 in0.0 mm 0.00 in0.0 mm
10:50 AM 38.4°F3.6°C 32.2°F0.1°C 78% 6.0 mph NE9.7 kmh NE 11.0 mph17.7 kmh 30.31 in1026.4 mb 0.00 in0.0 mm 0.00 in0.0 mm 0.00 in0.0 mm
10:55 AM 38.4°F3.6°C 32.5°F0.3°C 79% 9.0 mph NE14.5 kmh NE 10.0 mph16.1 kmh 30.31 in1026.4 mb 0.00 in0.0 mm 0.00 in0.0 mm 0.00 in0.0 mm
11:00 AM 38.3°F3.5°C 32.7°F0.4°C 80% 9.0 mph ENE14.5 kmh ENE 13.0 mph20.9 kmh 30.31 in1026.4 mb 0.00 in0.0 mm 0.00 in0.0 mm 0.00 in0.0 mm
11:05 AM 38.0°F3.3°C 32.7°F0.4°C 81% 10.0 mph ENE16.1 kmh ENE 16.0 mph25.7 kmh 30.30 in1026.1 mb 0.00 in0.0 mm 0.00 in0.0 mm 0.00 in0.0 mm
11:10 AM 37.7°F3.2°C 32.7°F0.4°C 82% 6.0 mph ENE9.7 kmh ENE 10.0 mph16.1 kmh 30.31 in1026.4 mb 0.00 in0.0 mm 0.00 in0.0 mm 0.00 in0.0 mm
11:15 AM 37.9°F3.3°C 33.2°F0.7°C 83% 8.0 mph ENE12.9 kmh ENE 12.0 mph19.3 kmh 30.30 in1026.1 mb 0.00 in0.0 mm 0.00 in0.0 mm 0.00 in0.0 mm
11:20 AM 38.0°F3.3°C 33.3°F0.7°C 83% 5.0 mph ENE8.0 kmh ENE 12.0 mph19.3 kmh 30.31 in1026.4 mb 0.00 in0.0 mm 0.00 in0.0 mm 0.00 in0.0 mm
11:25 AM 37.9°F3.3°C 32.9°F0.5°C 82% 10.0 mph E16.1 kmh E 12.0 mph19.3 kmh 30.31 in1026.4 mb 0.00 in0.0 mm 0.00 in0.0 mm 0.00 in0.0 mm
11:30 AM 37.9°F3.3°C 33.2°F0.7°C 83% 9.0 mph ENE14.5 kmh ENE 12.0 mph19.3 kmh 30.31 in1026.4 mb 0.00 in0.0 mm 0.00 in0.0 mm 0.00 in0.0 mm
11:35 AM 37.9°F3.3°C 33.5°F0.8°C 84% 9.0 mph ENE14.5 kmh ENE 12.0 mph19.3 kmh 30.30 in1026.1 mb 0.00 in0.0 mm 0.00 in0.0 mm 0.00 in0.0 mm
11:40 AM 37.9°F3.3°C 33.5°F0.8°C 84% 9.0 mph NE14.5 kmh NE 11.0 mph17.7 kmh 30.29 in1025.7 mb 0.00 in0.0 mm 0.00 in0.0 mm 0.00 in0.0 mm
11:45 AM 38.0°F3.3°C 33.9°F1.1°C 85% 8.0 mph ENE12.9 kmh ENE 11.0 mph17.7 kmh 30.30 in1026.1 mb 0.00 in0.0 mm 0.00 in0.0 mm 0.00 in0.0 mm
11:50 AM 37.9°F3.3°C 33.8°F1.0°C 85% 6.0 mph NE9.7 kmh NE 11.0 mph17.7 kmh 30.30 in1026.1 mb 0.00 in0.0 mm 0.00 in0.0 mm 0.00 in0.0 mm
11:55 AM 38.0°F3.3°C 34.2°F1.2°C 86% 6.0 mph NE9.7 kmh NE 7.0 mph11.3 kmh 30.30 in1026.1 mb 0.00 in0.0 mm 0.00 in0.0 mm 0.00 in0.0 mm
12:00 PM 38.0°F3.3°C 33.9°F1.1°C 85% 4.0 mph NE6.4 kmh NE 7.0 mph11.3 kmh 30.30 in1026.1 mb 0.00 in0.0 mm 0.00 in0.0 mm 0.00 in0.0 mm
12:05 PM 38.0°F3.3°C 33.9°F1.1°C 85% 3.0 mph NE4.8 kmh NE 7.0 mph11.3 kmh 30.30 in1026.1 mb 0.00 in0.0 mm 0.00 in0.0 mm 0.00 in0.0 mm
12:10 PM 38.0°F3.3°C 33.9°F1.1°C 85% 2.0 mph NE3.2 kmh NE 3.0 mph4.8 kmh 30.29 in1025.7 mb 0.00 in0.0 mm 0.00 in0.0 mm 0.00 in0.0 mm
12:15 PM 38.3°F3.5°C 34.8°F1.6°C 87% 5.0 mph NE8.0 kmh NE 6.0 mph9.7 kmh 30.29 in1025.7 mb 0.00 in0.0 mm 0.00 in0.0 mm 0.00 in0.0 mm
12:20 PM 38.4°F3.6°C 34.6°F1.4°C 86% 4.0 mph ENE6.4 kmh ENE 8.0 mph12.9 kmh 30.29 in1025.7 mb 0.00 in0.0 mm 0.00 in0.0 mm 0.00 in0.0 mm
12:25 PM 38.2°F3.4°C 34.4°F1.3°C 86% 3.0 mph ENE4.8 kmh ENE 4.0 mph6.4 kmh 30.28 in1025.4 mb 0.00 in0.0 mm 0.00 in0.0 mm 0.00 in0.0 mm
12:30 PM 38.4°F3.6°C 34.6°F1.4°C 86% 5.0 mph ENE8.0 kmh ENE 5.0 mph8.0 kmh 30.28 in1025.4 mb 0.00 in0.0 mm 0.00 in0.0 mm 0.00 in0.0 mm
12:35 PM 38.6°F3.7°C 34.5°F1.4°C 85% 3.0 mph ENE4.8 kmh ENE 6.0 mph9.7 kmh 30.27 in1025.1 mb 0.00 in0.0 mm 0.00 in0.0 mm 0.00 in0.0 mm
12:40 PM 38.7°F3.7°C 34.9°F1.6°C 86% 5.0 mph ENE8.0 kmh ENE 10.0 mph16.1 kmh 30.27 in1025.1 mb 0.00 in0.0 mm 0.00 in0.0 mm 0.00 in0.0 mm
12:45 PM 38.8°F3.8°C 35.0°F1.7°C 86% 9.0 mph ENE14.5 kmh ENE 11.0 mph17.7 kmh 30.26 in1024.7 mb 0.00 in0.0 mm 0.00 in0.0 mm 0.00 in0.0 mm
12:50 PM 38.8°F3.8°C 34.7°F1.5°C 85% 8.0 mph ENE12.9 kmh ENE 11.0 mph17.7 kmh 30.25 in1024.4 mb 0.00 in0.0 mm 0.00 in0.0 mm 0.00 in0.0 mm
12:55 PM 39.0°F3.9°C 35.2°F1.8°C 86% 8.0 mph ENE12.9 kmh ENE 9.0 mph14.5 kmh 30.25 in1024.4 mb 0.00 in0.0 mm 0.00 in0.0 mm 0.00 in0.0 mm
01:00 PM 38.9°F3.8°C 35.1°F1.7°C 86% 9.0 mph ENE14.5 kmh ENE 11.0 mph17.7 kmh 30.25 in1024.4 mb 0.00 in0.0 mm 0.00 in0.0 mm 0.00 in0.0 mm
01:05 PM 39.0°F3.9°C 35.2°F1.8°C 86% 9.0 mph ENE14.5 kmh ENE 11.0 mph17.7 kmh 30.25 in1024.4 mb 0.00 in0.0 mm 0.00 in0.0 mm 0.00 in0.0 mm
01:10 PM 39.0°F3.9°C 35.2°F1.8°C 86% 10.0 mph ENE16.1 kmh ENE 12.0 mph19.3 kmh 30.24 in1024.0 mb 0.00 in0.0 mm 0.00 in0.0 mm 0.00 in0.0 mm
01:15 PM 38.9°F3.8°C 35.4°F1.9°C 87% 15.0 mph NE24.1 kmh NE 15.0 mph24.1 kmh 30.24 in1024.0 mb 0.00 in0.0 mm 0.00 in0.0 mm 0.00 in0.0 mm
01:20 PM 38.9°F3.8°C 35.4°F1.9°C 87% 15.0 mph NE24.1 kmh NE 16.0 mph25.7 kmh 30.23 in1023.7 mb 0.00 in0.0 mm 0.00 in0.0 mm 0.00 in0.0 mm
01:25 PM 38.8°F3.8°C 35.6°F2.0°C 88% 12.0 mph NE19.3 kmh NE 15.0 mph24.1 kmh 30.23 in1023.7 mb 0.00 in0.0 mm 0.00 in0.0 mm 0.00 in0.0 mm
01:30 PM 38.8°F3.8°C 35.6°F2.0°C 88% 12.0 mph NE19.3 kmh NE 16.0 mph25.7 kmh 30.22 in1023.4 mb 0.00 in0.0 mm 0.00 in0.0 mm 0.00 in0.0 mm
01:35 PM 38.7°F3.7°C 35.5°F1.9°C 88% 14.0 mph NE22.5 kmh NE 17.0 mph27.4 kmh 30.22 in1023.4 mb 0.00 in0.0 mm 0.00 in0.0 mm 0.00 in0.0 mm
01:40 PM 38.6°F3.7°C 35.4°F1.9°C 88% 14.0 mph NE22.5 kmh NE 14.0 mph22.5 kmh 30.22 in1023.4 mb 0.00 in0.0 mm 0.00 in0.0 mm 0.00 in0.0 mm
01:45 PM 38.5°F3.6°C 35.3°F1.8°C 88% 14.0 mph NE22.5 kmh NE 16.0 mph25.7 kmh 30.22 in1023.4 mb 0.00 in0.0 mm 0.00 in0.0 mm 0.00 in0.0 mm
01:50 PM 38.4°F3.6°C 35.5°F1.9°C 89% 13.0 mph NE20.9 kmh NE 16.0 mph25.7 kmh 30.21 in1023.0 mb 0.00 in0.0 mm 0.00 in0.0 mm 0.00 in0.0 mm
01:55 PM 38.4°F3.6°C 35.2°F1.8°C 88% 14.0 mph NE22.5 kmh NE 16.0 mph25.7 kmh 30.20 in1022.7 mb 0.00 in0.0 mm 0.00 in0.0 mm 0.00 in0.0 mm
02:00 PM 38.4°F3.6°C 35.2°F1.8°C 88% 16.0 mph NE25.7 kmh NE 17.0 mph27.4 kmh 30.20 in1022.7 mb 0.00 in0.0 mm 0.00 in0.0 mm 0.00 in0.0 mm
02:05 PM 38.2°F3.4°C 35.0°F1.7°C 88% 16.0 mph NE25.7 kmh NE 18.0 mph29.0 kmh 30.19 in1022.4 mb 0.00 in0.0 mm 0.00 in0.0 mm 0.00 in0.0 mm
02:10 PM 38.2°F3.4°C 35.0°F1.7°C 88% 16.0 mph NE25.7 kmh NE 17.0 mph27.4 kmh 30.19 in1022.4 mb 0.00 in0.0 mm 0.00 in0.0 mm 0.00 in0.0 mm
02:15 PM 38.1°F3.4°C 34.9°F1.6°C 88% 14.0 mph NE22.5 kmh NE 17.0 mph27.4 kmh 30.19 in1022.4 mb 0.00 in0.0 mm 0.00 in0.0 mm 0.00 in0.0 mm
02:20 PM 38.0°F3.3°C 35.1°F1.7°C 89% 14.0 mph NE22.5 kmh NE 17.0 mph27.4 kmh 30.19 in1022.4 mb 0.00 in0.0 mm 0.00 in0.0 mm 0.00 in0.0 mm
02:25 PM 38.0°F3.3°C 35.1°F1.7°C 89% 14.0 mph NE22.5 kmh NE 16.0 mph25.7 kmh 30.19 in1022.4 mb 0.00 in0.0 mm 0.00 in0.0 mm 0.00 in0.0 mm
02:30 PM 37.9°F3.3°C 35.0°F1.7°C 89% 13.0 mph NE20.9 kmh NE 16.0 mph25.7 kmh 30.19 in1022.4 mb 0.00 in0.0 mm 0.00 in0.0 mm 0.00 in0.0 mm
02:35 PM 38.0°F3.3°C 35.1°F1.7°C 89% 10.0 mph NE16.1 kmh NE 16.0 mph25.7 kmh 30.19 in1022.4 mb 0.00 in0.0 mm 0.00 in0.0 mm 0.00 in0.0 mm
02:40 PM 37.9°F3.3°C 35.0°F1.7°C 89% 11.0 mph NE17.7 kmh NE 14.0 mph22.5 kmh 30.20 in1022.7 mb 0.00 in0.0 mm 0.00 in0.0 mm 0.00 in0.0 mm
02:45 PM 38.0°F3.3°C 35.1°F1.7°C 89% 11.0 mph NE17.7 kmh NE 14.0 mph22.5 kmh 30.20 in1022.7 mb 0.00 in0.0 mm 0.00 in0.0 mm 0.00 in0.0 mm
02:50 PM 38.0°F3.3°C 35.1°F1.7°C 89% 12.0 mph NE19.3 kmh NE 14.0 mph22.5 kmh 30.20 in1022.7 mb 0.00 in0.0 mm 0.00 in0.0 mm 0.00 in0.0 mm
02:55 PM 37.9°F3.3°C 35.2°F1.8°C 90% 13.0 mph NE20.9 kmh NE 14.0 mph22.5 kmh 30.20 in1022.7 mb 0.01 in0.3 mm 0.12 in3.0 mm 0.01 in0.3 mm
03:00 PM 37.8°F3.2°C 35.1°F1.7°C 90% 12.0 mph NE19.3 kmh NE 14.0 mph22.5 kmh 30.20 in1022.7 mb 0.01 in0.3 mm 0.00 in0.0 mm 0.01 in0.3 mm
03:05 PM 37.5°F3.1°C 34.8°F1.6°C 90% 10.0 mph NE16.1 kmh NE 15.0 mph24.1 kmh 30.20 in1022.7 mb 0.01 in0.3 mm 0.00 in0.0 mm 0.01 in0.3 mm
03:10 PM 37.5°F3.1°C 34.8°F1.6°C 90% 11.0 mph ENE17.7 kmh ENE 13.0 mph20.9 kmh 30.20 in1022.7 mb 0.02 in0.5 mm 0.12 in3.0 mm 0.02 in0.5 mm
03:15 PM 37.4°F3.0°C 34.7°F1.5°C 90% 10.0 mph NE16.1 kmh NE 14.0 mph22.5 kmh 30.21 in1023.0 mb 0.02 in0.5 mm 0.00 in0.0 mm 0.02 in0.5 mm
03:20 PM 37.3°F2.9°C 34.6°F1.4°C 90% 10.0 mph NE16.1 kmh NE 14.0 mph22.5 kmh 30.21 in1023.0 mb 0.03 in0.8 mm 0.12 in3.0 mm 0.03 in0.8 mm
03:25 PM 37.3°F2.9°C 34.6°F1.4°C 90% 13.0 mph NE20.9 kmh NE 13.0 mph20.9 kmh 30.20 in1022.7 mb 0.03 in0.8 mm 0.00 in0.0 mm 0.03 in0.8 mm
03:30 PM 37.2°F2.9°C 34.5°F1.4°C 90% 12.0 mph NE19.3 kmh NE 15.0 mph24.1 kmh 30.20 in1022.7 mb 0.03 in0.8 mm 0.00 in0.0 mm 0.03 in0.8 mm
03:35 PM 37.2°F2.9°C 34.5°F1.4°C 90% 11.0 mph NE17.7 kmh NE 15.0 mph24.1 kmh 30.20 in1022.7 mb 0.04 in1.0 mm 0.12 in3.0 mm 0.04 in1.0 mm
03:40 PM 37.3°F2.9°C 34.6°F1.4°C 90% 11.0 mph NE17.7 kmh NE 14.0 mph22.5 kmh 30.20 in1022.7 mb 0.04 in1.0 mm 0.00 in0.0 mm 0.04 in1.0 mm
03:45 PM 37.1°F2.8°C 34.4°F1.3°C 90% 9.0 mph NE14.5 kmh NE 14.0 mph22.5 kmh 30.20 in1022.7 mb 0.05 in1.3 mm 0.12 in3.0 mm 0.05 in1.3 mm
03:50 PM 37.1°F2.8°C 34.4°F1.3°C 90% 13.0 mph NE20.9 kmh NE 14.0 mph22.5 kmh 30.19 in1022.4 mb 0.05 in1.3 mm 0.00 in0.0 mm 0.05 in1.3 mm
03:55 PM 37.1°F2.8°C 34.7°F1.5°C 91% 11.0 mph NE17.7 kmh NE 11.0 mph17.7 kmh 30.19 in1022.4 mb 0.04 in1.0 mm 0.00 in0.0 mm 0.05 in1.3 mm
04:00 PM 37.1°F2.8°C 34.7°F1.5°C 91% 12.0 mph NE19.3 kmh NE 15.0 mph24.1 kmh 30.19 in1022.4 mb 0.05 in1.3 mm 0.01 in0.3 mm 0.06 in1.5 mm
04:05 PM 36.8°F2.7°C 34.4°F1.3°C 91% 14.0 mph NE22.5 kmh NE 16.0 mph25.7 kmh 30.19 in1022.4 mb 0.05 in1.3 mm 0.00 in0.0 mm 0.06 in1.5 mm
04:10 PM 36.7°F2.6°C 34.3°F1.3°C 91% 11.0 mph NE17.7 kmh NE 13.0 mph20.9 kmh 30.19 in1022.4 mb 0.05 in1.3 mm 0.00 in0.0 mm 0.06 in1.5 mm
04:15 PM 36.7°F2.6°C 34.3°F1.3°C 91% 14.0 mph NE22.5 kmh NE 16.0 mph25.7 kmh 30.19 in1022.4 mb 0.05 in1.3 mm 0.00 in0.0 mm 0.06 in1.5 mm
04:20 PM 36.7°F2.6°C 34.3°F1.3°C 91% 9.0 mph NE14.5 kmh NE 16.0 mph25.7 kmh 30.19 in1022.4 mb 0.06 in1.5 mm 0.12 in3.0 mm 0.07 in1.8 mm
04:25 PM 36.6°F2.6°C 34.5°F1.4°C 92% 12.0 mph NE19.3 kmh NE 14.0 mph22.5 kmh 30.19 in1022.4 mb 0.05 in1.3 mm 0.00 in0.0 mm 0.07 in1.8 mm
04:30 PM 36.6°F2.6°C 34.5°F1.4°C 92% 11.0 mph NE17.7 kmh NE 14.0 mph22.5 kmh 30.18 in1022.0 mb 0.05 in1.3 mm 0.00 in0.0 mm 0.07 in1.8 mm
04:35 PM 36.5°F2.5°C 34.4°F1.3°C 92% 9.0 mph NE14.5 kmh NE 15.0 mph24.1 kmh 30.18 in1022.0 mb 0.05 in1.3 mm 0.00 in0.0 mm 0.07 in1.8 mm
04:40 PM 36.5°F2.5°C 34.4°F1.3°C 92% 11.0 mph NE17.7 kmh NE 11.0 mph17.7 kmh 30.18 in1022.0 mb 0.05 in1.3 mm 0.00 in0.0 mm 0.07 in1.8 mm
04:45 PM 36.6°F2.6°C 34.5°F1.4°C 92% 12.0 mph NE19.3 kmh NE 14.0 mph22.5 kmh 30.17 in1021.7 mb 0.05 in1.3 mm 0.00 in0.0 mm 0.07 in1.8 mm
04:50 PM 36.5°F2.5°C 34.4°F1.3°C 92% 15.0 mph NE24.1 kmh NE 15.0 mph24.1 kmh 30.17 in1021.7 mb 0.05 in1.3 mm 0.00 in0.0 mm 0.07 in1.8 mm
04:55 PM 36.5°F2.5°C 34.4°F1.3°C 92% 10.0 mph NE16.1 kmh NE 12.0 mph19.3 kmh 30.17 in1021.7 mb 0.04 in1.0 mm 0.00 in0.0 mm 0.07 in1.8 mm
05:00 PM 36.4°F2.4°C 34.3°F1.3°C 92% 12.0 mph NE19.3 kmh NE 13.0 mph20.9 kmh 30.17 in1021.7 mb 0.04 in1.0 mm 0.00 in0.0 mm 0.07 in1.8 mm
05:05 PM 36.4°F2.4°C 34.3°F1.3°C 92% 11.0 mph NE17.7 kmh NE 13.0 mph20.9 kmh 30.17 in1021.7 mb 0.04 in1.0 mm 0.00 in0.0 mm 0.07 in1.8 mm
05:10 PM 36.4°F2.4°C 34.3°F1.3°C 92% 10.0 mph NE16.1 kmh NE 10.0 mph16.1 kmh 30.17 in1021.7 mb 0.02 in0.5 mm 0.00 in0.0 mm 0.07 in1.8 mm
05:15 PM 36.4°F2.4°C 34.3°F1.3°C 92% 11.0 mph ENE17.7 kmh ENE 13.0 mph20.9 kmh 30.16 in1021.3 mb 0.02 in0.5 mm 0.00 in0.0 mm 0.07 in1.8 mm
05:20 PM 36.3°F2.4°C 34.2°F1.2°C 92% 10.0 mph NE16.1 kmh NE 13.0 mph20.9 kmh 30.16 in1021.3 mb 0.02 in0.5 mm 0.00 in0.0 mm 0.07 in1.8 mm
05:25 PM 36.2°F2.3°C 34.1°F1.2°C 92% 7.0 mph NE11.3 kmh NE 11.0 mph17.7 kmh 30.17 in1021.7 mb 0.01 in0.3 mm 0.00 in0.0 mm 0.07 in1.8 mm
05:30 PM 36.2°F2.3°C 34.1°F1.2°C 92% 10.0 mph NE16.1 kmh NE 12.0 mph19.3 kmh 30.17 in1021.7 mb 0.01 in0.3 mm 0.00 in0.0 mm 0.07 in1.8 mm
05:35 PM 36.2°F2.3°C 34.1°F1.2°C 92% 9.0 mph NE14.5 kmh NE 12.0 mph19.3 kmh 30.16 in1021.3 mb 0.01 in0.3 mm 0.00 in0.0 mm 0.07 in1.8 mm
05:40 PM 36.1°F2.3°C 34.0°F1.1°C 92% 9.0 mph NE14.5 kmh NE 12.0 mph19.3 kmh 30.16 in1021.3 mb 0.00 in0.0 mm 0.00 in0.0 mm 0.07 in1.8 mm
05:45 PM 36.1°F2.3°C 34.0°F1.1°C 92% 6.0 mph ENE9.7 kmh ENE 12.0 mph19.3 kmh 30.16 in1021.3 mb 0.01 in0.3 mm 0.12 in3.0 mm 0.08 in2.0 mm
05:50 PM 36.1°F2.3°C 34.0°F1.1°C 92% 8.0 mph ENE12.9 kmh ENE 12.0 mph19.3 kmh 30.17 in1021.7 mb 0.01 in0.3 mm 0.00 in0.0 mm 0.08 in2.0 mm
05:55 PM 36.1°F2.3°C 34.0°F1.1°C 92% 9.0 mph ENE14.5 kmh ENE 9.0 mph14.5 kmh 30.16 in1021.3 mb 0.01 in0.3 mm 0.00 in0.0 mm 0.08 in2.0 mm
06:00 PM 36.1°F2.3°C 34.0°F1.1°C 92% 6.0 mph ENE9.7 kmh ENE 10.0 mph16.1 kmh 30.16 in1021.3 mb 0.01 in0.3 mm 0.00 in0.0 mm 0.08 in2.0 mm
06:05 PM 36.0°F2.2°C 33.9°F1.1°C 92% 9.0 mph ENE14.5 kmh ENE 10.0 mph16.1 kmh 30.16 in1021.3 mb 0.02 in0.5 mm 0.12 in3.0 mm 0.09 in2.3 mm
06:10 PM 36.0°F2.2°C 33.9°F1.1°C 92% 6.0 mph ENE9.7 kmh ENE 8.0 mph12.9 kmh 30.16 in1021.3 mb 0.02 in0.5 mm 0.00 in0.0 mm 0.09 in2.3 mm
06:15 PM 35.9°F2.2°C 33.8°F1.0°C 92% 8.0 mph ENE12.9 kmh ENE 9.0 mph14.5 kmh 30.16 in1021.3 mb 0.02 in0.5 mm 0.00 in0.0 mm 0.09 in2.3 mm
06:20 PM 35.9°F2.2°C 33.8°F1.0°C 92% 8.0 mph ENE12.9 kmh ENE 9.0 mph14.5 kmh 30.15 in1021.0 mb 0.02 in0.5 mm 0.00 in0.0 mm 0.09 in2.3 mm
06:25 PM 35.8°F2.1°C 33.7°F0.9°C 92% 6.0 mph NE9.7 kmh NE 9.0 mph14.5 kmh 30.15 in1021.0 mb 0.02 in0.5 mm 0.00 in0.0 mm 0.09 in2.3 mm
06:30 PM 35.8°F2.1°C 33.7°F0.9°C 92% 6.0 mph NE9.7 kmh NE 9.0 mph14.5 kmh 30.15 in1021.0 mb 0.03 in0.8 mm 0.12 in3.0 mm 0.10 in2.5 mm
06:35 PM 35.8°F2.1°C 34.0°F1.1°C 93% 7.0 mph NE11.3 kmh NE 9.0 mph14.5 kmh 30.15 in1021.0 mb 0.03 in0.8 mm 0.00 in0.0 mm 0.10 in2.5 mm
06:40 PM 35.8°F2.1°C 34.0°F1.1°C 93% 6.0 mph NE9.7 kmh NE 7.0 mph11.3 kmh 30.15 in1021.0 mb 0.03 in0.8 mm 0.00 in0.0 mm 0.10 in2.5 mm
06:45 PM 35.8°F2.1°C 34.0°F1.1°C 93% 7.0 mph NE11.3 kmh NE 7.0 mph11.3 kmh 30.15 in1021.0 mb 0.03 in0.8 mm 0.00 in0.0 mm 0.10 in2.5 mm
06:50 PM 35.9°F2.2°C 34.1°F1.2°C 93% 5.0 mph NE8.0 kmh NE 7.0 mph11.3 kmh 30.15 in1021.0 mb 0.03 in0.8 mm 0.00 in0.0 mm 0.10 in2.5 mm
06:55 PM 36.0°F2.2°C 34.2°F1.2°C 93% 6.0 mph NE9.7 kmh NE 6.0 mph9.7 kmh 30.16 in1021.3 mb 0.02 in0.5 mm 0.00 in0.0 mm 0.10 in2.5 mm
07:00 PM 35.8°F2.1°C 34.0°F1.1°C 93% 5.0 mph NE8.0 kmh NE 6.0 mph9.7 kmh 30.15 in1021.0 mb 0.02 in0.5 mm 0.00 in0.0 mm 0.10 in2.5 mm
07:05 PM 35.8°F2.1°C 34.0°F1.1°C 93% 5.0 mph NE8.0 kmh NE 6.0 mph9.7 kmh 30.15 in1021.0 mb 0.03 in0.8 mm 0.12 in3.0 mm 0.11 in2.8 mm
07:10 PM 35.8°F2.1°C 34.0°F1.1°C 93% 4.0 mph NE6.4 kmh NE 5.0 mph8.0 kmh 30.15 in1021.0 mb 0.02 in0.5 mm 0.00 in0.0 mm 0.11 in2.8 mm
07:15 PM 35.9°F2.2°C 34.1°F1.2°C 93% 4.0 mph NE6.4 kmh NE 5.0 mph8.0 kmh 30.15 in1021.0 mb 0.02 in0.5 mm 0.00 in0.0 mm 0.11 in2.8 mm
07:20 PM 35.9°F2.2°C 34.1°F1.2°C 93% 4.0 mph NE6.4 kmh NE 5.0 mph8.0 kmh 30.15 in1021.0 mb 0.02 in0.5 mm 0.00 in0.0 mm 0.11 in2.8 mm
07:25 PM 35.9°F2.2°C 34.1°F1.2°C 93% 3.0 mph NE4.8 kmh NE 5.0 mph8.0 kmh 30.15 in1021.0 mb 0.02 in0.5 mm 0.00 in0.0 mm 0.11 in2.8 mm
07:30 PM 36.0°F2.2°C 34.2°F1.2°C 93% 4.0 mph NE6.4 kmh NE 6.0 mph9.7 kmh 30.15 in1021.0 mb 0.02 in0.5 mm 0.00 in0.0 mm 0.11 in2.8 mm
07:35 PM 36.0°F2.2°C 34.2°F1.2°C 93% 3.0 mph NE4.8 kmh NE 6.0 mph9.7 kmh 30.15 in1021.0 mb 0.02 in0.5 mm 0.00 in0.0 mm 0.11 in2.8 mm
07:40 PM 36.0°F2.2°C 34.2°F1.2°C 93% 3.0 mph NE4.8 kmh NE 4.0 mph6.4 kmh 30.15 in1021.0 mb 0.01 in0.3 mm 0.00 in0.0 mm 0.11 in2.8 mm
07:45 PM 36.0°F2.2°C 34.2°F1.2°C 93% 4.0 mph NE6.4 kmh NE 4.0 mph6.4 kmh 30.15 in1021.0 mb 0.01 in0.3 mm 0.00 in0.0 mm 0.11 in2.8 mm
07:50 PM 36.1°F2.3°C 34.3°F1.3°C 93% 4.0 mph NE6.4 kmh NE 5.0 mph8.0 kmh 30.16 in1021.3 mb 0.01 in0.3 mm 0.00 in0.0 mm 0.11 in2.8 mm
07:55 PM 36.1°F2.3°C 34.3°F1.3°C 93% 3.0 mph NE4.8 kmh NE 4.0 mph6.4 kmh 30.15 in1021.0 mb 0.01 in0.3 mm 0.00 in0.0 mm 0.11 in2.8 mm
08:00 PM 36.2°F2.3°C 34.4°F1.3°C 93% 3.0 mph NE4.8 kmh NE 5.0 mph8.0 kmh 30.15 in1021.0 mb 0.01 in0.3 mm 0.00 in0.0 mm 0.11 in2.8 mm
08:05 PM 36.2°F2.3°C 34.4°F1.3°C 93% 3.0 mph NE4.8 kmh NE 5.0 mph8.0 kmh 30.15 in1021.0 mb 0.01 in0.3 mm 0.00 in0.0 mm 0.11 in2.8 mm
08:10 PM 36.1°F2.3°C 34.3°F1.3°C 93% 2.0 mph NE3.2 kmh NE 3.0 mph4.8 kmh 30.15 in1021.0 mb 0.00 in0.0 mm 0.00 in0.0 mm 0.11 in2.8 mm
08:15 PM 36.2°F2.3°C 34.4°F1.3°C 93% 2.0 mph NE3.2 kmh NE 4.0 mph6.4 kmh 30.15 in1021.0 mb 0.00 in0.0 mm 0.00 in0.0 mm 0.11 in2.8 mm
08:20 PM 36.3°F2.4°C 34.5°F1.4°C 93% 3.0 mph NE4.8 kmh NE 4.0 mph6.4 kmh 30.15 in1021.0 mb 0.00 in0.0 mm 0.00 in0.0 mm 0.11 in2.8 mm
08:25 PM 36.4°F2.4°C 34.6°F1.4°C 93% 1.0 mph NE1.6 kmh NE 3.0 mph4.8 kmh 30.15 in1021.0 mb 0.00 in0.0 mm 0.00 in0.0 mm 0.11 in2.8 mm
08:30 PM 36.4°F2.4°C 34.6°F1.4°C 93% 1.0 mph NE1.6 kmh NE 3.0 mph4.8 kmh 30.15 in1021.0 mb 0.00 in0.0 mm 0.00 in0.0 mm 0.11 in2.8 mm
08:35 PM 36.5°F2.5°C 34.7°F1.5°C 93% Calm Calm 3.0 mph4.8 kmh 30.14 in1020.7 mb 0.00 in0.0 mm 0.00 in0.0 mm 0.11 in2.8 mm
08:40 PM 36.5°F2.5°C 34.7°F1.5°C 93% Calm Calm 2.0 mph3.2 kmh 30.14 in1020.7 mb 0.00 in0.0 mm 0.00 in0.0 mm 0.11 in2.8 mm
08:45 PM 36.5°F2.5°C 34.7°F1.5°C 93% 1.0 mph NE1.6 kmh NE 2.0 mph3.2 kmh 30.14 in1020.7 mb 0.01 in0.3 mm 0.12 in3.0 mm 0.12 in3.0 mm
08:50 PM 36.6°F2.6°C 34.8°F1.6°C 93% 1.0 mph NE1.6 kmh NE 2.0 mph3.2 kmh 30.14 in1020.7 mb 0.01 in0.3 mm 0.00 in0.0 mm 0.12 in3.0 mm
08:55 PM 36.6°F2.6°C 34.8°F1.6°C 93% 2.0 mph NE3.2 kmh NE 3.0 mph4.8 kmh 30.14 in1020.7 mb 0.01 in0.3 mm 0.00 in0.0 mm 0.12 in3.0 mm
09:00 PM 36.6°F2.6°C 34.8°F1.6°C 93% 2.0 mph NE3.2 kmh NE 3.0 mph4.8 kmh 30.14 in1020.7 mb 0.01 in0.3 mm 0.00 in0.0 mm 0.12 in3.0 mm
09:05 PM 36.6°F2.6°C 34.8°F1.6°C 93% Calm Calm 3.0 mph4.8 kmh 30.14 in1020.7 mb 0.01 in0.3 mm 0.00 in0.0 mm 0.12 in3.0 mm
09:10 PM 36.6°F2.6°C 34.8°F1.6°C 93% Calm Calm -- 30.15 in1021.0 mb 0.01 in0.3 mm 0.00 in0.0 mm 0.12 in3.0 mm
09:15 PM 36.6°F2.6°C 34.8°F1.6°C 93% Calm Calm -- 30.15 in1021.0 mb 0.01 in0.3 mm 0.00 in0.0 mm 0.12 in3.0 mm
09:20 PM 36.6°F2.6°C 34.8°F1.6°C 93% Calm Calm -- 30.16 in1021.3 mb 0.01 in0.3 mm 0.00 in0.0 mm 0.12 in3.0 mm
09:25 PM 36.6°F2.6°C 34.8°F1.6°C 93% Calm Calm -- 30.16 in1021.3 mb 0.01 in0.3 mm 0.00 in0.0 mm 0.12 in3.0 mm
09:30 PM 36.6°F2.6°C 34.8°F1.6°C 93% 1.0 mph NE1.6 kmh NE 3.0 mph4.8 kmh 30.15 in1021.0 mb 0.01 in0.3 mm 0.00 in0.0 mm 0.12 in3.0 mm
09:35 PM 36.6°F2.6°C 34.8°F1.6°C 93% Calm Calm 3.0 mph4.8 kmh 30.15 in1021.0 mb 0.01 in0.3 mm 0.00 in0.0 mm 0.12 in3.0 mm
09:40 PM 36.6°F2.6°C 34.8°F1.6°C 93% Calm Calm -- 30.15 in1021.0 mb 0.01 in0.3 mm 0.00 in0.0 mm 0.12 in3.0 mm
09:45 PM 36.6°F2.6°C 34.8°F1.6°C 93% 1.0 mph NE1.6 kmh NE 2.0 mph3.2 kmh 30.15 in1021.0 mb 0.01 in0.3 mm 0.00 in0.0 mm 0.12 in3.0 mm
09:50 PM 36.7°F2.6°C 34.9°F1.6°C 93% Calm Calm 2.0 mph3.2 kmh 30.15 in1021.0 mb 0.01 in0.3 mm 0.00 in0.0 mm 0.12 in3.0 mm
09:55 PM 36.7°F2.6°C 34.9°F1.6°C 93% 2.0 mph NE3.2 kmh NE 2.0 mph3.2 kmh 30.15 in1021.0 mb 0.00 in0.0 mm 0.00 in0.0 mm 0.12 in3.0 mm
10:00 PM 36.7°F2.6°C 34.9°F1.6°C 93% 2.0 mph NE3.2 kmh NE 3.0 mph4.8 kmh 30.15 in1021.0 mb 0.00 in0.0 mm 0.00 in0.0 mm 0.12 in3.0 mm
10:05 PM 36.7°F2.6°C 34.9°F1.6°C 93% 2.0 mph NE3.2 kmh NE 3.0 mph4.8 kmh 30.15 in1021.0 mb 0.00 in0.0 mm 0.00 in0.0 mm 0.12 in3.0 mm
10:10 PM 36.6°F2.6°C 35.0°F1.7°C 94% 1.0 mph NE1.6 kmh NE 3.0 mph4.8 kmh 30.15 in1021.0 mb 0.00 in0.0 mm 0.00 in0.0 mm 0.12 in3.0 mm
10:15 PM 36.6°F2.6°C 35.0°F1.7°C 94% Calm Calm 3.0 mph4.8 kmh 30.15 in1021.0 mb 0.00 in0.0 mm 0.00 in0.0 mm 0.12 in3.0 mm
10:20 PM 36.5°F2.5°C 34.7°F1.5°C 93% 1.0 mph NE1.6 kmh NE 3.0 mph4.8 kmh 30.15 in1021.0 mb 0.00 in0.0 mm 0.00 in0.0 mm 0.12 in3.0 mm
10:25 PM 36.6°F2.6°C 34.8°F1.6°C 93% Calm Calm -- 30.15 in1021.0 mb 0.00 in0.0 mm 0.00 in0.0 mm 0.12 in3.0 mm
10:30 PM 36.5°F2.5°C 34.7°F1.5°C 93% 1.0 mph NE1.6 kmh NE 2.0 mph3.2 kmh 30.15 in1021.0 mb 0.00 in0.0 mm 0.00 in0.0 mm 0.12 in3.0 mm
10:35 PM 36.5°F2.5°C 34.7°F1.5°C 93% Calm Calm 2.0 mph3.2 kmh 30.15 in1021.0 mb 0.00 in0.0 mm 0.00 in0.0 mm 0.12 in3.0 mm
10:40 PM 36.4°F2.4°C 34.8°F1.6°C 94% Calm Calm -- 30.15 in1021.0 mb 0.00 in0.0 mm 0.00 in0.0 mm 0.12 in3.0 mm
10:45 PM 36.4°F2.4°C 34.8°F1.6°C 94% Calm Calm -- 30.15 in1021.0 mb 0.00 in0.0 mm 0.00 in0.0 mm 0.12 in3.0 mm
10:50 PM 36.4°F2.4°C 34.8°F1.6°C 94% Calm Calm -- 30.15 in1021.0 mb 0.00 in0.0 mm 0.00 in0.0 mm 0.12 in3.0 mm
10:55 PM 36.4°F2.4°C 34.8°F1.6°C 94% 1.0 mph NE1.6 kmh NE 2.0 mph3.2 kmh 30.15 in1021.0 mb 0.00 in0.0 mm 0.00 in0.0 mm 0.12 in3.0 mm
11:00 PM 36.4°F2.4°C 34.8°F1.6°C 94% Calm Calm 2.0 mph3.2 kmh 30.15 in1021.0 mb 0.00 in0.0 mm 0.00 in0.0 mm 0.12 in3.0 mm
11:05 PM 36.5°F2.5°C 34.9°F1.6°C 94% Calm Calm 2.0 mph3.2 kmh 30.15 in1021.0 mb 0.00 in0.0 mm 0.00 in0.0 mm 0.12 in3.0 mm
11:10 PM 36.4°F2.4°C 34.8°F1.6°C 94% 1.0 mph NE1.6 kmh NE 2.0 mph3.2 kmh 30.15 in1021.0 mb 0.00 in0.0 mm 0.00 in0.0 mm 0.12 in3.0 mm
11:15 PM 36.4°F2.4°C 34.8°F1.6°C 94% 1.0 mph NE1.6 kmh NE 2.0 mph3.2 kmh 30.15 in1021.0 mb 0.00 in0.0 mm 0.00 in0.0 mm 0.12 in3.0 mm
11:20 PM 36.5°F2.5°C 34.9°F1.6°C 94% 1.0 mph NE1.6 kmh NE 2.0 mph3.2 kmh 30.15 in1021.0 mb 0.00 in0.0 mm 0.00 in0.0 mm 0.12 in3.0 mm
11:25 PM 36.4°F2.4°C 34.8°F1.6°C 94% Calm Calm 1.0 mph1.6 kmh 30.15 in1021.0 mb 0.00 in0.0 mm 0.00 in0.0 mm 0.12 in3.0 mm
11:30 PM 36.4°F2.4°C 34.8°F1.6°C 94% Calm Calm 1.0 mph1.6 kmh 30.15 in1021.0 mb 0.00 in0.0 mm 0.00 in0.0 mm 0.12 in3.0 mm
11:35 PM 36.4°F2.4°C 34.8°F1.6°C 94% Calm Calm 1.0 mph1.6 kmh 30.14 in1020.7 mb 0.00 in0.0 mm 0.00 in0.0 mm 0.12 in3.0 mm
11:40 PM 36.4°F2.4°C 34.8°F1.6°C 94% Calm Calm -- 30.15 in1021.0 mb 0.00 in0.0 mm 0.00 in0.0 mm 0.12 in3.0 mm
11:45 PM 36.4°F2.4°C 34.8°F1.6°C 94% Calm Calm -- 30.14 in1020.7 mb 0.00 in0.0 mm 0.00 in0.0 mm 0.12 in3.0 mm
11:50 PM 36.3°F2.4°C 34.7°F1.5°C 94% Calm Calm -- 30.14 in1020.7 mb 0.00 in0.0 mm 0.00 in0.0 mm 0.12 in3.0 mm
11:55 PM 36.4°F2.4°C 34.8°F1.6°C 94% 2.0 mph NE3.2 kmh NE 3.0 mph4.8 kmh 30.14 in1020.7 mb 0.00 in0.0 mm 0.00 in0.0 mm 0.12 in3.0 mm